YBUC weather

Butch Airport
Western Australia, Australia

Public forecast

Using degrees Celsius for public forecast. Weather courtesy of forecast.io.

Closest aviation weather report (METAR) to Butch Airport

Closest report is Perth Jandakot Airport, 111.4 nm (206.3 km) NNE. Retrieved 2019/12/06 10:30 UTC (0 seconds ago):

YPJT 061030Z AUTO 23009KT 9999 // NCD 26/16 Q1007 RF000/0000

Closest aviation forecast (TAF) to Butch Airport

Forecast is more than 6 hours old.

Closest forecast is Perth Jandakot Airport, 111.4 nm (206.3 km) NNE. Retrieved 2019-12-06 00:00 UTC (10 hours ago):

TAF YPJT 052239Z 0600/0618 07012KT CAVOK BECMG 0601/0603 36012KT CAVOK FM060500 29014KT CAVOK FM061000 26003KT CAVOK